sensor_id;sensor_type;location;lat;lon;timestamp;P1;durP1;ratioP1;P2;durP2;ratioP2
18217;SDS011;9234;49.344;11.120;2023-09-18T00:01:00;6.88;;;6.22;;
18217;SDS011;9234;49.344;11.120;2023-09-18T00:03:28;6.47;;;5.97;;
18217;SDS011;9234;49.344;11.120;2023-09-18T00:05:56;6.32;;;5.72;;
18217;SDS011;9234;49.344;11.120;2023-09-18T00:08:24;7.65;;;5.47;;
18217;SDS011;9234;49.344;11.120;2023-09-18T00:10:53;6.75;;;6.13;;
18217;SDS011;9234;49.344;11.120;2023-09-18T00:13:24;6.05;;;5.55;;
18217;SDS011;9234;49.344;11.120;2023-09-18T00:15:54;6.07;;;5.57;;
18217;SDS011;9234;49.344;11.120;2023-09-18T00:18:26;5.57;;;5.10;;
18217;SDS011;9234;49.344;11.120;2023-09-18T00:20:54;6.45;;;5.95;;
18217;SDS011;9234;49.344;11.120;2023-09-18T00:23:23;6.38;;;5.78;;
18217;SDS011;9234;49.344;11.120;2023-09-18T00:25:51;6.90;;;6.30;;
18217;SDS011;9234;49.344;11.120;2023-09-18T00:28:19;5.97;;;5.47;;
18217;SDS011;9234;49.344;11.120;2023-09-18T00:30:49;6.82;;;5.88;;
18217;SDS011;9234;49.344;11.120;2023-09-18T00:33:18;6.45;;;5.95;;
18217;SDS011;9234;49.344;11.120;2023-09-18T00:35:47;7.32;;;5.60;;
18217;SDS011;9234;49.344;11.120;2023-09-18T00:38:17;6.63;;;6.00;;
18217;SDS011;9234;49.344;11.120;2023-09-18T00:40:46;6.38;;;5.78;;
18217;SDS011;9234;49.344;11.120;2023-09-18T00:43:15;5.95;;;5.43;;
18217;SDS011;9234;49.344;11.120;2023-09-18T00:45:45;6.30;;;5.35;;
18217;SDS011;9234;49.344;11.120;2023-09-18T00:48:17;7.80;;;5.38;;
18217;SDS011;9234;49.344;11.120;2023-09-18T00:50:45;6.20;;;5.65;;
18217;SDS011;9234;49.344;11.120;2023-09-18T00:53:16;7.38;;;5.38;;
18217;SDS011;9234;49.344;11.120;2023-09-18T00:55:49;5.97;;;5.53;;
18217;SDS011;9234;49.344;11.120;2023-09-18T00:58:22;6.88;;;5.97;;
18217;SDS011;9234;49.344;11.120;2023-09-18T01:00:52;6.13;;;5.53;;
18217;SDS011;9234;49.344;11.120;2023-09-18T01:03:22;5.75;;;5.25;;
18217;SDS011;9234;49.344;11.120;2023-09-18T01:05:53;5.10;;;4.70;;
18217;SDS011;9234;49.344;11.120;2023-09-18T01:08:23;5.95;;;5.20;;
18217;SDS011;9234;49.344;11.120;2023-09-18T01:10:53;5.78;;;5.28;;
18217;SDS011;9234;49.344;11.120;2023-09-18T01:13:34;5.65;;;5.15;;
18217;SDS011;9234;49.344;11.120;2023-09-18T01:16:10;6.95;;;5.25;;
18217;SDS011;9234;49.344;11.120;2023-09-18T01:18:49;6.57;;;5.75;;
18217;SDS011;9234;49.344;11.120;2023-09-18T01:21:19;6.32;;;5.72;;
18217;SDS011;9234;49.344;11.120;2023-09-18T01:23:49;7.03;;;6.32;;
18217;SDS011;9234;49.344;11.120;2023-09-18T01:26:18;7.82;;;5.78;;
18217;SDS011;9234;49.344;11.120;2023-09-18T01:28:47;6.13;;;5.63;;
18217;SDS011;9234;49.344;11.120;2023-09-18T01:31:15;6.45;;;5.85;;
18217;SDS011;9234;49.344;11.120;2023-09-18T01:33:45;6.03;;;5.50;;
18217;SDS011;9234;49.344;11.120;2023-09-18T01:36:14;6.32;;;5.78;;
18217;SDS011;9234;49.344;11.120;2023-09-18T01:38:46;5.28;;;4.78;;
18217;SDS011;9234;49.344;11.120;2023-09-18T01:41:18;5.90;;;5.30;;
18217;SDS011;9234;49.344;11.120;2023-09-18T01:43:48;6.43;;;5.93;;
18217;SDS011;9234;49.344;11.120;2023-09-18T01:46:19;7.20;;;5.57;;
18217;SDS011;9234;49.344;11.120;2023-09-18T01:48:48;6.03;;;5.45;;
18217;SDS011;9234;49.344;11.120;2023-09-18T01:51:17;6.53;;;5.15;;
18217;SDS011;9234;49.344;11.120;2023-09-18T01:53:45;6.32;;;5.25;;
18217;SDS011;9234;49.344;11.120;2023-09-18T01:56:15;4.70;;;4.30;;
18217;SDS011;9234;49.344;11.120;2023-09-18T01:58:43;4.80;;;4.30;;
18217;SDS011;9234;49.344;11.120;2023-09-18T02:01:12;4.90;;;4.50;;
18217;SDS011;9234;49.344;11.120;2023-09-18T02:03:41;5.78;;;4.75;;
18217;SDS011;9234;49.344;11.120;2023-09-18T02:06:29;4.82;;;4.20;;
18217;SDS011;9234;49.344;11.120;2023-09-18T02:08:58;4.57;;;4.18;;
18217;SDS011;9234;49.344;11.120;2023-09-18T02:11:28;5.75;;;5.25;;
18217;SDS011;9234;49.344;11.120;2023-09-18T02:13:57;4.88;;;4.47;;
18217;SDS011;9234;49.344;11.120;2023-09-18T02:16:26;5.40;;;4.70;;
18217;SDS011;9234;49.344;11.120;2023-09-18T02:18:54;5.47;;;4.35;;
18217;SDS011;9234;49.344;11.120;2023-09-18T02:21:23;5.35;;;4.95;;
18217;SDS011;9234;49.344;11.120;2023-09-18T02:23:52;5.88;;;5.28;;
18217;SDS011;9234;49.344;11.120;2023-09-18T02:26:22;6.18;;;5.10;;
18217;SDS011;9234;49.344;11.120;2023-09-18T02:28:54;6.10;;;5.50;;
18217;SDS011;9234;49.344;11.120;2023-09-18T02:31:25;5.80;;;5.30;;
18217;SDS011;9234;49.344;11.120;2023-09-18T02:33:54;5.38;;;4.97;;
18217;SDS011;9234;49.344;11.120;2023-09-18T02:36:23;6.10;;;5.50;;
18217;SDS011;9234;49.344;11.120;2023-09-18T02:38:51;8.40;;;6.05;;
18217;SDS011;9234;49.344;11.120;2023-09-18T02:41:19;6.10;;;5.50;;
18217;SDS011;9234;49.344;11.120;2023-09-18T02:43:48;6.03;;;5.53;;
18217;SDS011;9234;49.344;11.120;2023-09-18T02:46:18;5.80;;;5.03;;
18217;SDS011;9234;49.344;11.120;2023-09-18T02:48:46;6.68;;;5.95;;
18217;SDS011;9234;49.344;11.120;2023-09-18T02:51:15;6.68;;;5.72;;
18217;SDS011;9234;49.344;11.120;2023-09-18T02:53:43;6.10;;;5.60;;
18217;SDS011;9234;49.344;11.120;2023-09-18T02:56:11;6.88;;;6.28;;
18217;SDS011;9234;49.344;11.120;2023-09-18T02:58:40;7.25;;;5.03;;
18217;SDS011;9234;49.344;11.120;2023-09-18T03:01:10;6.30;;;5.70;;
18217;SDS011;9234;49.344;11.120;2023-09-18T03:03:40;6.72;;;5.90;;
18217;SDS011;9234;49.344;11.120;2023-09-18T03:06:09;6.55;;;5.95;;
18217;SDS011;9234;49.344;11.120;2023-09-18T03:08:37;6.45;;;5.85;;
18217;SDS011;9234;49.344;11.120;2023-09-18T03:11:10;6.13;;;5.53;;
18217;SDS011;9234;49.344;11.120;2023-09-18T03:13:42;6.28;;;5.68;;
18217;SDS011;9234;49.344;11.120;2023-09-18T03:16:14;6.57;;;6.00;;
18217;SDS011;9234;49.344;11.120;2023-09-18T03:18:45;6.15;;;5.35;;
18217;SDS011;9234;49.344;11.120;2023-09-18T03:21:13;6.95;;;6.25;;
18217;SDS011;9234;49.344;11.120;2023-09-18T03:23:42;5.93;;;5.43;;
18217;SDS011;9234;49.344;11.120;2023-09-18T03:26:10;5.65;;;5.15;;
18217;SDS011;9234;49.344;11.120;2023-09-18T03:28:38;5.93;;;5.43;;
18217;SDS011;9234;49.344;11.120;2023-09-18T03:31:09;5.95;;;5.45;;
18217;SDS011;9234;49.344;11.120;2023-09-18T03:33:37;6.30;;;5.53;;
18217;SDS011;9234;49.344;11.120;2023-09-18T03:36:07;6.65;;;5.95;;
18217;SDS011;9234;49.344;11.120;2023-09-18T03:38:37;7.28;;;6.68;;
18217;SDS011;9234;49.344;11.120;2023-09-18T03:41:06;7.50;;;6.68;;
18217;SDS011;9234;49.344;11.120;2023-09-18T03:43:35;6.30;;;5.70;;
18217;SDS011;9234;49.344;11.120;2023-09-18T03:46:03;8.35;;;7.05;;
18217;SDS011;9234;49.344;11.120;2023-09-18T03:48:39;7.78;;;7.07;;
18217;SDS011;9234;49.344;11.120;2023-09-18T03:51:08;7.97;;;7.13;;
18217;SDS011;9234;49.344;11.120;2023-09-18T03:53:42;7.40;;;6.80;;
18217;SDS011;9234;49.344;11.120;2023-09-18T03:56:10;8.80;;;8.13;;
18217;SDS011;9234;49.344;11.120;2023-09-18T03:58:39;8.60;;;7.80;;
18217;SDS011;9234;49.344;11.120;2023-09-18T04:01:07;7.70;;;6.82;;
18217;SDS011;9234;49.344;11.120;2023-09-18T04:03:35;7.60;;;6.90;;
18217;SDS011;9234;49.344;11.120;2023-09-18T04:06:04;7.53;;;6.82;;
18217;SDS011;9234;49.344;11.120;2023-09-18T04:08:34;8.20;;;7.40;;
18217;SDS011;9234;49.344;11.120;2023-09-18T04:11:02;8.43;;;7.13;;
18217;SDS011;9234;49.344;11.120;2023-09-18T04:13:31;7.78;;;7.13;;
18217;SDS011;9234;49.344;11.120;2023-09-18T04:16:00;8.20;;;7.50;;
18217;SDS011;9234;49.344;11.120;2023-09-18T04:18:30;7.97;;;7.28;;
18217;SDS011;9234;49.344;11.120;2023-09-18T04:20:59;7.43;;;6.55;;
18217;SDS011;9234;49.344;11.120;2023-09-18T04:23:28;7.55;;;6.85;;
18217;SDS011;9234;49.344;11.120;2023-09-18T04:25:57;9.52;;;6.15;;
18217;SDS011;9234;49.344;11.120;2023-09-18T04:28:26;7.10;;;6.45;;
18217;SDS011;9234;49.344;11.120;2023-09-18T04:30:54;7.50;;;6.70;;
18217;SDS011;9234;49.344;11.120;2023-09-18T04:33:24;6.03;;;5.53;;
18217;SDS011;9234;49.344;11.120;2023-09-18T04:35:55;7.65;;;6.95;;
18217;SDS011;9234;49.344;11.120;2023-09-18T04:38:23;6.65;;;6.03;;
18217;SDS011;9234;49.344;11.120;2023-09-18T04:40:58;6.15;;;5.38;;
18217;SDS011;9234;49.344;11.120;2023-09-18T04:43:27;6.88;;;6.20;;
18217;SDS011;9234;49.344;11.120;2023-09-18T04:45:58;5.70;;;5.20;;
18217;SDS011;9234;49.344;11.120;2023-09-18T04:48:26;5.65;;;5.15;;
18217;SDS011;9234;49.344;11.120;2023-09-18T04:50:56;5.85;;;5.35;;
18217;SDS011;9234;49.344;11.120;2023-09-18T04:53:25;6.43;;;5.50;;
18217;SDS011;9234;49.344;11.120;2023-09-18T04:55:55;6.55;;;5.72;;
18217;SDS011;9234;49.344;11.120;2023-09-18T04:58:25;7.05;;;5.93;;
18217;SDS011;9234;49.344;11.120;2023-09-18T05:00:54;6.78;;;6.07;;
18217;SDS011;9234;49.344;11.120;2023-09-18T05:03:22;6.93;;;6.32;;
18217;SDS011;9234;49.344;11.120;2023-09-18T05:05:52;7.45;;;5.97;;
18217;SDS011;9234;49.344;11.120;2023-09-18T05:08:20;6.63;;;6.03;;
18217;SDS011;9234;49.344;11.120;2023-09-18T05:10:50;6.53;;;5.93;;
18217;SDS011;9234;49.344;11.120;2023-09-18T05:13:19;8.80;;;6.72;;
18217;SDS011;9234;49.344;11.120;2023-09-18T05:15:47;9.85;;;7.20;;
18217;SDS011;9234;49.344;11.120;2023-09-18T05:18:16;6.95;;;6.35;;
18217;SDS011;9234;49.344;11.120;2023-09-18T05:20:44;7.60;;;6.40;;
18217;SDS011;9234;49.344;11.120;2023-09-18T05:23:13;8.77;;;6.53;;
18217;SDS011;9234;49.344;11.120;2023-09-18T05:25:44;7.95;;;6.35;;
18217;SDS011;9234;49.344;11.120;2023-09-18T05:28:12;7.78;;;6.60;;
18217;SDS011;9234;49.344;11.120;2023-09-18T05:30:42;6.72;;;6.13;;
18217;SDS011;9234;49.344;11.120;2023-09-18T05:33:10;7.07;;;5.72;;
18217;SDS011;9234;49.344;11.120;2023-09-18T05:35:40;6.45;;;5.85;;
18217;SDS011;9234;49.344;11.120;2023-09-18T05:38:11;6.75;;;6.15;;
18217;SDS011;9234;49.344;11.120;2023-09-18T05:40:41;6.53;;;5.60;;
18217;SDS011;9234;49.344;11.120;2023-09-18T05:43:11;7.20;;;6.50;;
18217;SDS011;9234;49.344;11.120;2023-09-18T05:45:39;7.70;;;6.45;;
18217;SDS011;9234;49.344;11.120;2023-09-18T05:48:09;7.25;;;6.68;;
18217;SDS011;9234;49.344;11.120;2023-09-18T05:50:37;8.40;;;6.70;;
18217;SDS011;9234;49.344;11.120;2023-09-18T05:53:08;7.10;;;6.50;;
18217;SDS011;9234;49.344;11.120;2023-09-18T05:55:36;7.38;;;6.75;;
18217;SDS011;9234;49.344;11.120;2023-09-18T05:58:04;7.35;;;6.55;;
18217;SDS011;9234;49.344;11.120;2023-09-18T06:00:33;7.07;;;6.07;;
18217;SDS011;9234;49.344;11.120;2023-09-18T06:03:04;8.73;;;6.35;;
18217;SDS011;9234;49.344;11.120;2023-09-18T06:05:33;8.75;;;6.47;;
18217;SDS011;9234;49.344;11.120;2023-09-18T06:08:02;10.82;;;6.93;;
18217;SDS011;9234;49.344;11.120;2023-09-18T06:10:32;6.88;;;6.28;;
18217;SDS011;9234;49.344;11.120;2023-09-18T06:13:00;7.70;;;6.25;;
18217;SDS011;9234;49.344;11.120;2023-09-18T06:15:31;6.88;;;6.38;;
18217;SDS011;9234;49.344;11.120;2023-09-18T06:17:59;7.28;;;6.68;;
18217;SDS011;9234;49.344;11.120;2023-09-18T06:20:31;8.48;;;6.72;;
18217;SDS011;9234;49.344;11.120;2023-09-18T06:23:00;7.32;;;6.63;;
18217;SDS011;9234;49.344;11.120;2023-09-18T06:25:30;6.85;;;6.25;;
18217;SDS011;9234;49.344;11.120;2023-09-18T06:27:58;7.00;;;6.18;;
18217;SDS011;9234;49.344;11.120;2023-09-18T06:30:27;7.18;;;6.25;;
18217;SDS011;9234;49.344;11.120;2023-09-18T06:32:57;7.38;;;6.00;;
18217;SDS011;9234;49.344;11.120;2023-09-18T06:35:25;6.85;;;6.25;;
18217;SDS011;9234;49.344;11.120;2023-09-18T06:37:56;7.20;;;6.47;;
18217;SDS011;9234;49.344;11.120;2023-09-18T06:40:25;6.60;;;6.10;;
18217;SDS011;9234;49.344;11.120;2023-09-18T06:42:57;8.48;;;6.88;;
18217;SDS011;9234;49.344;11.120;2023-09-18T06:45:27;6.45;;;5.85;;
18217;SDS011;9234;49.344;11.120;2023-09-18T06:47:55;9.05;;;6.25;;
18217;SDS011;9234;49.344;11.120;2023-09-18T06:50:24;6.07;;;5.50;;
18217;SDS011;9234;49.344;11.120;2023-09-18T06:52:52;7.28;;;6.50;;
18217;SDS011;9234;49.344;11.120;2023-09-18T06:55:22;6.53;;;5.85;;
18217;SDS011;9234;49.344;11.120;2023-09-18T06:57:52;7.40;;;6.32;;
18217;SDS011;9234;49.344;11.120;2023-09-18T07:00:21;6.38;;;5.57;;
18217;SDS011;9234;49.344;11.120;2023-09-18T07:02:49;7.05;;;5.93;;
18217;SDS011;9234;49.344;11.120;2023-09-18T07:05:18;6.97;;;6.00;;
18217;SDS011;9234;49.344;11.120;2023-09-18T07:07:46;6.90;;;5.97;;
18217;SDS011;9234;49.344;11.120;2023-09-18T07:10:14;5.68;;;5.28;;
18217;SDS011;9234;49.344;11.120;2023-09-18T07:12:44;6.25;;;5.15;;
18217;SDS011;9234;49.344;11.120;2023-09-18T07:15:12;7.10;;;6.43;;
18217;SDS011;9234;49.344;11.120;2023-09-18T07:17:40;8.27;;;6.32;;
18217;SDS011;9234;49.344;11.120;2023-09-18T07:20:10;8.52;;;5.68;;
18217;SDS011;9234;49.344;11.120;2023-09-18T07:22:45;6.32;;;5.75;;
18217;SDS011;9234;49.344;11.120;2023-09-18T07:25:14;7.65;;;5.38;;
18217;SDS011;9234;49.344;11.120;2023-09-18T07:27:46;6.22;;;5.63;;
18217;SDS011;9234;49.344;11.120;2023-09-18T07:30:15;5.85;;;5.22;;
18217;SDS011;9234;49.344;11.120;2023-09-18T07:32:44;5.90;;;5.32;;
18217;SDS011;9234;49.344;11.120;2023-09-18T07:35:13;5.90;;;5.32;;
18217;SDS011;9234;49.344;11.120;2023-09-18T07:37:42;5.50;;;5.00;;
18217;SDS011;9234;49.344;11.120;2023-09-18T07:40:13;6.18;;;5.43;;
18217;SDS011;9234;49.344;11.120;2023-09-18T07:42:42;7.57;;;5.82;;
18217;SDS011;9234;49.344;11.120;2023-09-18T07:45:12;6.07;;;4.82;;
18217;SDS011;9234;49.344;11.120;2023-09-18T07:47:40;5.72;;;5.22;;
18217;SDS011;9234;49.344;11.120;2023-09-18T07:50:09;5.75;;;5.18;;
18217;SDS011;9234;49.344;11.120;2023-09-18T07:52:38;6.32;;;5.30;;
18217;SDS011;9234;49.344;11.120;2023-09-18T07:55:06;6.82;;;5.07;;
18217;SDS011;9234;49.344;11.120;2023-09-18T07:57:36;7.13;;;4.82;;
18217;SDS011;9234;49.344;11.120;2023-09-18T08:00:05;7.32;;;5.15;;
18217;SDS011;9234;49.344;11.120;2023-09-18T08:02:40;5.95;;;4.50;;
18217;SDS011;9234;49.344;11.120;2023-09-18T08:05:09;5.68;;;5.10;;
18217;SDS011;9234;49.344;11.120;2023-09-18T08:07:38;8.57;;;5.88;;
18217;SDS011;9234;49.344;11.120;2023-09-18T08:10:07;7.50;;;4.90;;
18217;SDS011;9234;49.344;11.120;2023-09-18T08:12:36;5.93;;;5.10;;
18217;SDS011;9234;49.344;11.120;2023-09-18T08:15:05;6.10;;;4.53;;
18217;SDS011;9234;49.344;11.120;2023-09-18T08:17:35;6.45;;;5.60;;
18217;SDS011;9234;49.344;11.120;2023-09-18T08:20:05;6.50;;;4.68;;
18217;SDS011;9234;49.344;11.120;2023-09-18T08:22:39;9.90;;;4.82;;
18217;SDS011;9234;49.344;11.120;2023-09-18T08:25:07;5.45;;;4.95;;
18217;SDS011;9234;49.344;11.120;2023-09-18T08:27:37;7.65;;;4.25;;
18217;SDS011;9234;49.344;11.120;2023-09-18T08:30:08;6.05;;;4.47;;
18217;SDS011;9234;49.344;11.120;2023-09-18T08:32:39;5.32;;;3.80;;
18217;SDS011;9234;49.344;11.120;2023-09-18T08:35:09;6.85;;;5.13;;
18217;SDS011;9234;49.344;11.120;2023-09-18T08:37:39;5.97;;;4.80;;
18217;SDS011;9234;49.344;11.120;2023-09-18T08:40:09;6.53;;;4.75;;
18217;SDS011;9234;49.344;11.120;2023-09-18T08:42:45;9.63;;;4.85;;
18217;SDS011;9234;49.344;11.120;2023-09-18T08:45:17;6.43;;;4.50;;
18217;SDS011;9234;49.344;11.120;2023-09-18T08:47:50;5.40;;;4.05;;
18217;SDS011;9234;49.344;11.120;2023-09-18T08:50:23;9.95;;;4.53;;
18217;SDS011;9234;49.344;11.120;2023-09-18T08:52:52;5.88;;;4.20;;
18217;SDS011;9234;49.344;11.120;2023-09-18T08:55:21;6.45;;;4.20;;
18217;SDS011;9234;49.344;11.120;2023-09-18T08:57:51;6.25;;;3.85;;
18217;SDS011;9234;49.344;11.120;2023-09-18T09:00:22;9.82;;;4.63;;
18217;SDS011;9234;49.344;11.120;2023-09-18T09:02:51;8.13;;;4.03;;
18217;SDS011;9234;49.344;11.120;2023-09-18T09:05:21;10.13;;;4.45;;
18217;SDS011;9234;49.344;11.120;2023-09-18T09:07:51;6.75;;;3.72;;
18217;SDS011;9234;49.344;11.120;2023-09-18T09:10:20;5.95;;;4.05;;
18217;SDS011;9234;49.344;11.120;2023-09-18T09:12:53;8.32;;;4.20;;
18217;SDS011;9234;49.344;11.120;2023-09-18T09:15:23;9.88;;;3.80;;
18217;SDS011;9234;49.344;11.120;2023-09-18T09:18:02;5.22;;;3.35;;
18217;SDS011;9234;49.344;11.120;2023-09-18T09:20:34;11.20;;;4.32;;
18217;SDS011;9234;49.344;11.120;2023-09-18T09:23:04;6.57;;;3.22;;
18217;SDS011;9234;49.344;11.120;2023-09-18T09:25:34;9.18;;;4.50;;
18217;SDS011;9234;49.344;11.120;2023-09-18T09:28:04;5.28;;;3.55;;
18217;SDS011;9234;49.344;11.120;2023-09-18T09:30:35;6.80;;;3.60;;
18217;SDS011;9234;49.344;11.120;2023-09-18T09:33:04;5.55;;;3.67;;
18217;SDS011;9234;49.344;11.120;2023-09-18T09:35:36;6.03;;;2.70;;
18217;SDS011;9234;49.344;11.120;2023-09-18T09:38:09;7.88;;;3.47;;
18217;SDS011;9234;49.344;11.120;2023-09-18T09:40:42;8.80;;;3.45;;
18217;SDS011;9234;49.344;11.120;2023-09-18T09:43:12;5.47;;;3.53;;
18217;SDS011;9234;49.344;11.120;2023-09-18T09:45:41;8.27;;;3.80;;
18217;SDS011;9234;49.344;11.120;2023-09-18T09:48:13;8.15;;;3.50;;
18217;SDS011;9234;49.344;11.120;2023-09-18T09:50:44;8.23;;;3.20;;
18217;SDS011;9234;49.344;11.120;2023-09-18T09:53:16;9.55;;;2.38;;
18217;SDS011;9234;49.344;11.120;2023-09-18T09:55:44;5.25;;;2.45;;
18217;SDS011;9234;49.344;11.120;2023-09-18T09:58:23;8.50;;;2.83;;
18217;SDS011;9234;49.344;11.120;2023-09-18T10:00:59;7.10;;;2.90;;
18217;SDS011;9234;49.344;11.120;2023-09-18T10:03:35;7.72;;;2.58;;
18217;SDS011;9234;49.344;11.120;2023-09-18T10:06:07;8.25;;;2.92;;
18217;SDS011;9234;49.344;11.120;2023-09-18T10:08:39;7.97;;;2.50;;
18217;SDS011;9234;49.344;11.120;2023-09-18T10:11:09;7.45;;;3.00;;
18217;SDS011;9234;49.344;11.120;2023-09-18T10:13:46;6.72;;;2.33;;
18217;SDS011;9234;49.344;11.120;2023-09-18T10:16:18;7.55;;;2.90;;
18217;SDS011;9234;49.344;11.120;2023-09-18T10:18:55;13.65;;;2.72;;
18217;SDS011;9234;49.344;11.120;2023-09-18T10:21:41;8.10;;;2.63;;
18217;SDS011;9234;49.344;11.120;2023-09-18T10:24:19;5.05;;;2.13;;
18217;SDS011;9234;49.344;11.120;2023-09-18T10:26:53;7.35;;;2.45;;
18217;SDS011;9234;49.344;11.120;2023-09-18T10:29:24;5.82;;;2.85;;
18217;SDS011;9234;49.344;11.120;2023-09-18T10:31:54;4.30;;;1.95;;
18217;SDS011;9234;49.344;11.120;2023-09-18T10:34:23;9.50;;;2.10;;
18217;SDS011;9234;49.344;11.120;2023-09-18T10:36:54;5.82;;;1.92;;
18217;SDS011;9234;49.344;11.120;2023-09-18T10:39:23;4.80;;;2.15;;
18217;SDS011;9234;49.344;11.120;2023-09-18T10:41:56;3.83;;;1.73;;
18217;SDS011;9234;49.344;11.120;2023-09-18T10:44:29;8.20;;;1.98;;
18217;SDS011;9234;49.344;11.120;2023-09-18T10:46:58;7.57;;;1.73;;
18217;SDS011;9234;49.344;11.120;2023-09-18T10:49:32;5.78;;;1.90;;
18217;SDS011;9234;49.344;11.120;2023-09-18T10:52:03;7.20;;;2.15;;
18217;SDS011;9234;49.344;11.120;2023-09-18T10:54:32;4.45;;;1.20;;
18217;SDS011;9234;49.344;11.120;2023-09-18T10:57:04;7.28;;;1.80;;
18217;SDS011;9234;49.344;11.120;2023-09-18T10:59:32;6.80;;;1.60;;
18217;SDS011;9234;49.344;11.120;2023-09-18T11:02:02;8.65;;;1.83;;
18217;SDS011;9234;49.344;11.120;2023-09-18T11:04:32;10.00;;;1.50;;
18217;SDS011;9234;49.344;11.120;2023-09-18T11:07:04;4.68;;;1.70;;
18217;SDS011;9234;49.344;11.120;2023-09-18T11:09:40;3.85;;;1.52;;
18217;SDS011;9234;49.344;11.120;2023-09-18T11:12:11;3.38;;;1.85;;
18217;SDS011;9234;49.344;11.120;2023-09-18T11:14:43;5.82;;;1.75;;
18217;SDS011;9234;49.344;11.120;2023-09-18T11:17:28;7.95;;;1.60;;
18217;SDS011;9234;49.344;11.120;2023-09-18T11:20:03;3.05;;;1.52;;
18217;SDS011;9234;49.344;11.120;2023-09-18T11:22:40;3.63;;;1.60;;
18217;SDS011;9234;49.344;11.120;2023-09-18T11:28:08;3.88;;;1.33;;
18217;SDS011;9234;49.344;11.120;2023-09-18T11:30:48;7.88;;;1.33;;
18217;SDS011;9234;49.344;11.120;2023-09-18T11:33:29;7.60;;;1.67;;
18217;SDS011;9234;49.344;11.120;2023-09-18T11:36:02;4.68;;;1.73;;
18217;SDS011;9234;49.344;11.120;2023-09-18T11:38:52;4.32;;;1.42;;
18217;SDS011;9234;49.344;11.120;2023-09-18T11:41:25;4.32;;;1.48;;
18217;SDS011;9234;49.344;11.120;2023-09-18T11:47:08;5.32;;;1.90;;
18217;SDS011;9234;49.344;11.120;2023-09-18T11:49:48;4.70;;;1.67;;
18217;SDS011;9234;49.344;11.120;2023-09-18T11:52:21;6.30;;;2.22;;
18217;SDS011;9234;49.344;11.120;2023-09-18T11:54:54;6.30;;;1.75;;
18217;SDS011;9234;49.344;11.120;2023-09-18T11:57:24;5.40;;;1.58;;
18217;SDS011;9234;49.344;11.120;2023-09-18T11:59:56;6.90;;;1.70;;
18217;SDS011;9234;49.344;11.120;2023-09-18T12:02:37;6.45;;;1.63;;
18217;SDS011;9234;49.344;11.120;2023-09-18T12:05:10;9.63;;;2.15;;
18217;SDS011;9234;49.344;11.120;2023-09-18T12:07:41;6.20;;;1.48;;
18217;SDS011;9234;49.344;11.120;2023-09-18T12:10:13;4.63;;;1.55;;
18217;SDS011;9234;49.344;11.120;2023-09-18T12:12:44;4.90;;;1.90;;
18217;SDS011;9234;49.344;11.120;2023-09-18T12:15:13;6.10;;;1.88;;
18217;SDS011;9234;49.344;11.120;2023-09-18T12:17:44;4.40;;;1.67;;
18217;SDS011;9234;49.344;11.120;2023-09-18T12:20:17;5.07;;;1.70;;
18217;SDS011;9234;49.344;11.120;2023-09-18T12:22:46;4.72;;;1.35;;
18217;SDS011;9234;49.344;11.120;2023-09-18T12:25:18;3.58;;;1.50;;
18217;SDS011;9234;49.344;11.120;2023-09-18T12:27:51;3.50;;;1.10;;
18217;SDS011;9234;49.344;11.120;2023-09-18T12:30:20;5.68;;;1.63;;
18217;SDS011;9234;49.344;11.120;2023-09-18T12:32:50;3.78;;;1.50;;
18217;SDS011;9234;49.344;11.120;2023-09-18T12:35:20;2.85;;;1.40;;
18217;SDS011;9234;49.344;11.120;2023-09-18T12:37:51;5.53;;;1.30;;
18217;SDS011;9234;49.344;11.120;2023-09-18T12:40:25;6.18;;;1.20;;
18217;SDS011;9234;49.344;11.120;2023-09-18T12:42:56;4.00;;;1.27;;
18217;SDS011;9234;49.344;11.120;2023-09-18T12:45:26;5.43;;;1.40;;
18217;SDS011;9234;49.344;11.120;2023-09-18T12:47:56;5.78;;;1.38;;
18217;SDS011;9234;49.344;11.120;2023-09-18T12:50:26;2.60;;;1.45;;
18217;SDS011;9234;49.344;11.120;2023-09-18T12:53:05;4.80;;;1.25;;
18217;SDS011;9234;49.344;11.120;2023-09-18T12:55:40;3.10;;;1.00;;
18217;SDS011;9234;49.344;11.120;2023-09-18T12:58:10;2.72;;;1.10;;
18217;SDS011;9234;49.344;11.120;2023-09-18T13:00:44;3.50;;;1.17;;
18217;SDS011;9234;49.344;11.120;2023-09-18T13:03:15;2.25;;;1.00;;
18217;SDS011;9234;49.344;11.120;2023-09-18T13:05:48;4.43;;;1.45;;
18217;SDS011;9234;49.344;11.120;2023-09-18T13:08:21;3.45;;;1.30;;
18217;SDS011;9234;49.344;11.120;2023-09-18T13:10:51;2.03;;;0.90;;
18217;SDS011;9234;49.344;11.120;2023-09-18T13:13:20;3.67;;;1.08;;
18217;SDS011;9234;49.344;11.120;2023-09-18T13:15:51;1.27;;;0.73;;
18217;SDS011;9234;49.344;11.120;2023-09-18T13:18:26;4.55;;;1.42;;
18217;SDS011;9234;49.344;11.120;2023-09-18T13:20:55;1.85;;;1.02;;
18217;SDS011;9234;49.344;11.120;2023-09-18T13:23:28;2.13;;;0.98;;
18217;SDS011;9234;49.344;11.120;2023-09-18T13:26:03;2.45;;;1.25;;
18217;SDS011;9234;49.344;11.120;2023-09-18T13:28:34;3.50;;;1.17;;
18217;SDS011;9234;49.344;11.120;2023-09-18T13:31:03;4.55;;;1.20;;
18217;SDS011;9234;49.344;11.120;2023-09-18T13:33:33;3.10;;;1.38;;
18217;SDS011;9234;49.344;11.120;2023-09-18T13:36:07;2.30;;;0.90;;
18217;SDS011;9234;49.344;11.120;2023-09-18T13:38:35;2.75;;;1.00;;
18217;SDS011;9234;49.344;11.120;2023-09-18T13:41:05;2.03;;;1.02;;
18217;SDS011;9234;49.344;11.120;2023-09-18T13:43:33;4.00;;;1.02;;
18217;SDS011;9234;49.344;11.120;2023-09-18T13:46:02;1.50;;;0.68;;
18217;SDS011;9234;49.344;11.120;2023-09-18T13:48:31;2.40;;;0.98;;
18217;SDS011;9234;49.344;11.120;2023-09-18T13:51:00;3.30;;;1.20;;
18217;SDS011;9234;49.344;11.120;2023-09-18T13:53:30;2.38;;;1.15;;
18217;SDS011;9234;49.344;11.120;2023-09-18T13:55:58;3.75;;;1.10;;
18217;SDS011;9234;49.344;11.120;2023-09-18T13:58:28;2.95;;;1.10;;
18217;SDS011;9234;49.344;11.120;2023-09-18T14:00:56;3.47;;;1.23;;
18217;SDS011;9234;49.344;11.120;2023-09-18T14:03:24;6.05;;;1.13;;
18217;SDS011;9234;49.344;11.120;2023-09-18T14:05:53;3.17;;;1.20;;
18217;SDS011;9234;49.344;11.120;2023-09-18T14:08:21;2.60;;;0.93;;
18217;SDS011;9234;49.344;11.120;2023-09-18T14:10:49;2.20;;;1.00;;
18217;SDS011;9234;49.344;11.120;2023-09-18T14:13:18;3.95;;;0.75;;
18217;SDS011;9234;49.344;11.120;2023-09-18T14:15:47;1.70;;;1.20;;
18217;SDS011;9234;49.344;11.120;2023-09-18T14:18:18;2.72;;;1.13;;
18217;SDS011;9234;49.344;11.120;2023-09-18T14:20:46;5.07;;;1.10;;
18217;SDS011;9234;49.344;11.120;2023-09-18T14:23:15;2.45;;;1.13;;
18217;SDS011;9234;49.344;11.120;2023-09-18T14:25:43;3.10;;;0.98;;
18217;SDS011;9234;49.344;11.120;2023-09-18T14:28:11;3.25;;;0.88;;
18217;SDS011;9234;49.344;11.120;2023-09-18T14:30:39;5.32;;;0.95;;
18217;SDS011;9234;49.344;11.120;2023-09-18T14:33:09;3.88;;;1.23;;
18217;SDS011;9234;49.344;11.120;2023-09-18T14:35:39;2.90;;;0.77;;
18217;SDS011;9234;49.344;11.120;2023-09-18T14:38:07;0.70;;;0.40;;
18217;SDS011;9234;49.344;11.120;2023-09-18T14:40:36;3.20;;;0.70;;
18217;SDS011;9234;49.344;11.120;2023-09-18T14:43:04;1.25;;;0.65;;
18217;SDS011;9234;49.344;11.120;2023-09-18T14:45:33;4.32;;;1.02;;
18217;SDS011;9234;49.344;11.120;2023-09-18T14:48:02;2.22;;;0.80;;
18217;SDS011;9234;49.344;11.120;2023-09-18T14:50:32;4.22;;;0.88;;
18217;SDS011;9234;49.344;11.120;2023-09-18T14:53:01;2.50;;;1.00;;
18217;SDS011;9234;49.344;11.120;2023-09-18T14:55:33;2.10;;;1.10;;
18217;SDS011;9234;49.344;11.120;2023-09-18T14:58:02;2.60;;;1.02;;
18217;SDS011;9234;49.344;11.120;2023-09-18T15:00:31;1.70;;;1.10;;
18217;SDS011;9234;49.344;11.120;2023-09-18T15:03:01;3.35;;;1.05;;
18217;SDS011;9234;49.344;11.120;2023-09-18T15:05:30;2.83;;;0.80;;
18217;SDS011;9234;49.344;11.120;2023-09-18T15:08:00;1.67;;;0.82;;
18217;SDS011;9234;49.344;11.120;2023-09-18T15:10:28;3.08;;;0.88;;
18217;SDS011;9234;49.344;11.120;2023-09-18T15:12:59;2.45;;;1.08;;